createdAt,value
2022-11-08T00:01:50.550Z,5.76
2022-11-08T00:03:58.922Z,5.85
2022-11-08T00:06:19.156Z,5.86
2022-11-08T00:08:37.816Z,5.93
2022-11-08T00:10:57.487Z,5.90
2022-11-08T00:13:16.444Z,5.95
2022-11-08T00:15:25.726Z,5.92
2022-11-08T00:17:35.329Z,5.98
2022-11-08T00:19:45.366Z,5.85
2022-11-08T00:21:51.931Z,5.79
2022-11-08T00:23:59.474Z,5.71
2022-11-08T00:26:06.101Z,5.79
2022-11-08T00:28:12.660Z,5.77
2022-11-08T00:30:20.105Z,5.73
2022-11-08T00:32:30.510Z,5.67
2022-11-08T00:34:38.100Z,5.78
2022-11-08T00:36:45.591Z,5.75
2022-11-08T00:38:57.625Z,5.81
2022-11-08T00:41:05.798Z,5.76
2022-11-08T00:43:13.593Z,5.80
2022-11-08T00:45:20.160Z,5.71
2022-11-08T00:47:31.639Z,5.75
2022-11-08T00:49:39.289Z,5.75
2022-11-08T00:51:46.060Z,5.76
2022-11-08T00:53:54.307Z,5.77
2022-11-08T00:56:04.784Z,5.84
2022-11-08T00:58:11.805Z,5.80
2022-11-08T01:00:19.511Z,5.82
2022-11-08T01:02:27.110Z,5.68
2022-11-08T01:04:36.423Z,5.68
2022-11-08T01:06:44.225Z,5.70
2022-11-08T01:08:52.930Z,5.67
2022-11-08T01:10:59.302Z,5.65
2022-11-08T01:13:05.924Z,5.70
2022-11-08T01:15:13.731Z,5.75
2022-11-08T01:17:20.219Z,5.81
2022-11-08T01:19:26.486Z,5.88
2022-11-08T01:21:37.866Z,5.86
2022-11-08T01:23:45.674Z,5.90
2022-11-08T01:25:52.848Z,5.92
2022-11-08T01:28:01.682Z,5.94
2022-11-08T01:30:10.959Z,6.01
2022-11-08T01:32:19.270Z,6.00
2022-11-08T01:34:26.373Z,6.02
2022-11-08T01:36:35.398Z,5.93
2022-11-08T01:38:42.196Z,6.03
2022-11-08T01:40:51.987Z,6.01
2022-11-08T01:42:58.036Z,5.94
2022-11-08T01:45:07.633Z,5.81
2022-11-08T01:47:17.101Z,5.83
2022-11-08T01:49:46.428Z,5.66
2022-11-08T01:52:07.330Z,5.76
2022-11-08T01:54:23.532Z,5.69
2022-11-08T01:56:31.128Z,5.70
2022-11-08T01:58:41.421Z,5.66
2022-11-08T02:00:49.187Z,5.61
2022-11-08T02:03:03.073Z,5.57
2022-11-08T02:05:27.607Z,5.57
2022-11-08T02:07:38.543Z,5.53
2022-11-08T02:09:50.182Z,5.48
2022-11-08T02:11:58.100Z,5.46
2022-11-08T02:14:06.043Z,5.36
2022-11-08T02:16:19.107Z,5.41
2022-11-08T02:18:30.130Z,5.43
2022-11-08T02:20:37.813Z,5.50
2022-11-08T02:22:59.659Z,5.42
2022-11-08T02:25:10.110Z,5.42
2022-11-08T02:27:18.114Z,5.46
2022-11-08T02:29:31.819Z,5.50
2022-11-08T02:31:37.649Z,5.39
2022-11-08T02:33:46.498Z,5.44
2022-11-08T02:35:58.940Z,5.33
2022-11-08T02:38:05.717Z,5.40
2022-11-08T02:40:15.271Z,5.37
2022-11-08T02:42:23.853Z,5.50
2022-11-08T02:44:30.798Z,5.51
2022-11-08T02:46:36.648Z,5.53
2022-11-08T02:48:42.445Z,5.50
2022-11-08T02:50:49.376Z,5.55
2022-11-08T02:52:55.151Z,5.51
2022-11-08T02:55:01.034Z,5.52
2022-11-08T02:57:10.745Z,5.49
2022-11-08T02:59:16.499Z,5.63
2022-11-08T03:01:22.307Z,5.62
2022-11-08T03:03:29.035Z,5.53
2022-11-08T03:05:35.291Z,5.54
2022-11-08T03:07:41.140Z,5.57
2022-11-08T03:09:47.794Z,5.60
2022-11-08T03:11:53.902Z,5.51
2022-11-08T03:14:03.039Z,5.53
2022-11-08T03:16:11.027Z,5.46
2022-11-08T03:18:17.264Z,5.50
2022-11-08T03:20:24.596Z,5.54
2022-11-08T03:22:33.939Z,5.52
2022-11-08T03:24:39.867Z,5.62
2022-11-08T03:26:45.723Z,5.56
2022-11-08T03:28:52.397Z,5.70
2022-11-08T03:31:01.192Z,5.58
2022-11-08T03:33:08.037Z,5.66
2022-11-08T03:35:14.683Z,5.68
2022-11-08T03:37:20.609Z,5.67
2022-11-08T03:39:29.236Z,5.78
2022-11-08T03:41:37.737Z,5.88
2022-11-08T03:43:44.595Z,5.78
2022-11-08T03:45:51.448Z,5.75
2022-11-08T03:48:01.509Z,5.87
2022-11-08T03:50:08.564Z,5.83
2022-11-08T03:52:14.723Z,5.78
2022-11-08T03:54:21.558Z,5.73
2022-11-08T03:56:27.678Z,5.63
2022-11-08T03:58:36.084Z,5.63
2022-11-08T04:00:43.245Z,5.47
2022-11-08T04:02:49.331Z,5.41
2022-11-08T04:04:57.808Z,5.25
2022-11-08T04:07:04.573Z,5.04
2022-11-08T04:09:10.557Z,4.85
2022-11-08T04:11:29.008Z,4.80
2022-11-08T04:13:48.330Z,4.72
2022-11-08T04:16:00.371Z,4.51
2022-11-08T04:18:18.857Z,4.39
2022-11-08T04:20:41.556Z,4.09
2022-11-08T04:22:47.376Z,3.88
2022-11-08T04:24:53.209Z,3.83
2022-11-08T04:27:00.067Z,3.49
2022-11-08T04:29:06.074Z,3.25
2022-11-08T04:31:14.881Z,2.99
2022-11-08T04:33:21.454Z,2.92
2022-11-08T04:35:29.928Z,2.87
2022-11-08T04:37:35.772Z,2.89
2022-11-08T04:39:42.728Z,2.84
2022-11-08T04:41:49.158Z,2.73
2022-11-08T04:43:58.281Z,2.67
2022-11-08T04:46:08.653Z,2.54
2022-11-08T04:48:14.463Z,2.35
2022-11-08T04:50:20.462Z,2.22
2022-11-08T04:52:29.741Z,2.13
2022-11-08T04:54:35.557Z,2.16
2022-11-08T04:56:42.126Z,2.10
2022-11-08T04:58:51.482Z,2.23
2022-11-08T05:00:57.262Z,2.19
2022-11-08T05:03:05.689Z,2.19
2022-11-08T05:05:13.481Z,2.21
2022-11-08T05:07:20.549Z,2.28
2022-11-08T05:09:29.380Z,2.29
2022-11-08T05:11:36.305Z,2.28
2022-11-08T05:13:43.106Z,2.22
2022-11-08T05:15:48.980Z,2.28
2022-11-08T05:17:55.999Z,2.25
2022-11-08T05:20:14.223Z,2.27
2022-11-08T05:22:32.521Z,2.23
2022-11-08T05:24:41.807Z,2.24
2022-11-08T05:26:50.795Z,2.13
2022-11-08T05:28:56.624Z,2.05
2022-11-08T05:31:03.293Z,1.99
2022-11-08T05:33:09.780Z,1.98
2022-11-08T05:35:15.893Z,2.01
2022-11-08T05:37:22.852Z,2.06
2022-11-08T05:39:32.041Z,2.06
2022-11-08T05:41:40.901Z,2.13
2022-11-08T05:43:53.306Z,2.19
2022-11-08T05:45:59.498Z,2.32
2022-11-08T05:48:06.523Z,2.42
2022-11-08T05:50:19.229Z,2.49
2022-11-08T05:52:25.686Z,2.65
2022-11-08T05:54:31.620Z,2.87
2022-11-08T05:56:40.799Z,3.07
2022-11-08T05:58:46.777Z,3.21
2022-11-08T06:00:52.606Z,3.15
2022-11-08T06:02:59.474Z,3.18
2022-11-08T06:05:06.055Z,3.15
2022-11-08T06:10:25.774Z,3.49
2022-11-08T06:12:35.951Z,3.58
2022-11-08T06:14:41.740Z,3.65
2022-11-08T06:16:50.433Z,3.77
2022-11-08T06:18:57.050Z,3.76
2022-11-08T06:21:03.385Z,3.73
2022-11-08T06:23:09.128Z,3.85
2022-11-08T06:25:16.334Z,3.79
2022-11-08T06:27:22.115Z,3.88
2022-11-08T06:29:30.509Z,3.95
2022-11-08T06:31:41.867Z,3.97
2022-11-08T06:33:51.847Z,4.06
2022-11-08T06:35:58.135Z,4.06
2022-11-08T06:38:09.159Z,4.01
2022-11-08T06:40:16.131Z,4.07
2022-11-08T06:42:22.085Z,4.13
2022-11-08T06:44:31.438Z,4.18
2022-11-08T06:46:39.511Z,4.31
2022-11-08T06:48:46.275Z,4.34
2022-11-08T06:51:00.361Z,4.43
2022-11-08T06:53:16.734Z,4.53
2022-11-08T06:55:22.927Z,4.70
2022-11-08T06:57:37.043Z,4.78
2022-11-08T06:59:45.446Z,4.74
2022-11-08T07:01:51.460Z,4.80
2022-11-08T07:03:58.538Z,4.80
2022-11-08T07:06:05.558Z,4.86
2022-11-08T07:08:11.374Z,5.04
2022-11-08T07:10:27.368Z,5.26
2022-11-08T07:12:33.174Z,5.49
2022-11-08T07:14:39.121Z,5.87
2022-11-08T07:16:48.491Z,6.34
2022-11-08T07:18:55.901Z,6.50
2022-11-08T07:21:03.399Z,6.82
2022-11-08T07:23:11.023Z,6.93
2022-11-08T07:25:16.793Z,7.33
2022-11-08T07:27:23.046Z,7.82
2022-11-08T07:29:29.658Z,8.15
2022-11-08T07:31:35.412Z,8.51
2022-11-08T07:33:45.989Z,8.83
2022-11-08T07:35:52.594Z,9.06
2022-11-08T07:37:59.033Z,9.48
2022-11-08T07:40:05.090Z,9.59
2022-11-08T07:42:11.814Z,9.78
2022-11-08T07:44:25.416Z,9.94
2022-11-08T07:46:31.167Z,10.27
2022-11-08T07:48:41.477Z,10.26
2022-11-08T07:50:50.160Z,10.54
2022-11-08T07:52:56.219Z,10.40
2022-11-08T07:55:02.915Z,10.14
2022-11-08T07:57:28.267Z,10.14
2022-11-08T07:59:44.854Z,9.49
2022-11-08T08:01:51.556Z,9.36
2022-11-08T08:03:57.418Z,9.55
2022-11-08T08:06:06.305Z,9.72
2022-11-08T08:08:14.167Z,9.32
2022-11-08T08:10:23.222Z,9.80
2022-11-08T08:12:29.101Z,9.58
2022-11-08T08:14:37.307Z,9.92
2022-11-08T08:16:43.282Z,9.69
2022-11-08T08:18:52.303Z,10.11
2022-11-08T08:21:05.494Z,10.34
2022-11-08T08:23:11.234Z,11.08
2022-11-08T08:25:18.534Z,10.85
2022-11-08T08:27:25.651Z,11.01
2022-11-08T08:29:32.420Z,10.86
2022-11-08T08:31:38.195Z,11.30
2022-11-08T08:33:46.450Z,11.49
2022-11-08T08:35:52.252Z,11.87
2022-11-08T08:38:04.513Z,11.86
2022-11-08T08:40:13.855Z,12.07
2022-11-08T08:42:19.893Z,12.29
2022-11-08T08:44:26.824Z,12.38
2022-11-08T08:46:33.709Z,12.59
2022-11-08T08:48:39.616Z,12.43
2022-11-08T08:50:45.785Z,12.83
2022-11-08T08:52:53.004Z,13.83
2022-11-08T08:55:05.179Z,14.05
2022-11-08T08:57:17.717Z,14.40
2022-11-08T09:01:50.740Z,14.71
2022-11-08T09:03:58.754Z,14.71
2022-11-08T09:06:06.941Z,14.05
2022-11-08T09:08:14.420Z,14.55
2022-11-08T09:10:23.341Z,14.56
2022-11-08T09:12:30.369Z,14.85
2022-11-08T09:14:36.581Z,14.08
2022-11-08T09:16:42.787Z,13.95
2022-11-08T09:18:49.616Z,14.00
2022-11-08T09:20:59.221Z,14.50
2022-11-08T09:23:08.126Z,14.31
2022-11-08T09:25:15.012Z,14.12
2022-11-08T09:27:23.689Z,14.32
2022-11-08T09:29:29.780Z,14.06
2022-11-08T09:31:43.320Z,14.67
2022-11-08T09:33:54.112Z,14.38
2022-11-08T09:36:05.964Z,15.44
2022-11-08T09:38:12.765Z,15.54
2022-11-08T09:40:33.516Z,15.04
2022-11-08T09:43:09.971Z,14.83
2022-11-08T09:45:30.308Z,14.99
2022-11-08T09:47:42.482Z,15.29
2022-11-08T09:50:10.056Z,14.87
2022-11-08T09:52:28.156Z,14.84
2022-11-08T09:54:44.986Z,15.51
2022-11-08T09:56:54.037Z,15.22
2022-11-08T09:59:15.870Z,14.50
2022-11-08T10:01:26.678Z,15.19
2022-11-08T10:03:34.417Z,14.89
2022-11-08T10:05:51.905Z,15.15
2022-11-08T10:08:13.475Z,15.85
2022-11-08T10:10:48.413Z,14.81
2022-11-08T10:13:11.305Z,15.20
2022-11-08T10:15:45.074Z,15.45
2022-11-08T10:18:40.482Z,16.25
2022-11-08T10:21:11.377Z,16.17
2022-11-08T10:23:28.234Z,15.60
2022-11-08T10:25:45.912Z,15.82
2022-11-08T10:27:59.541Z,16.27
2022-11-08T10:30:19.074Z,16.13
2022-11-08T10:32:28.032Z,15.75
2022-11-08T10:34:52.227Z,15.65
2022-11-08T10:37:14.727Z,15.65
2022-11-08T10:39:29.421Z,15.55
2022-11-08T10:41:48.548Z,16.05
2022-11-08T10:44:08.427Z,15.78
2022-11-08T10:46:40.191Z,15.75
2022-11-08T10:48:48.848Z,15.68
2022-11-08T10:50:57.106Z,16.20
2022-11-08T10:53:07.204Z,16.60
2022-11-08T10:55:31.136Z,16.94
2022-11-08T10:57:46.633Z,17.77
2022-11-08T10:59:53.381Z,17.64
2022-11-08T11:01:59.805Z,17.96
2022-11-08T11:04:32.119Z,18.33
2022-11-08T11:06:38.823Z,18.37
2022-11-08T11:08:56.899Z,17.75
2022-11-08T11:11:29.351Z,17.19
2022-11-08T11:13:38.954Z,17.82
2022-11-08T11:15:52.265Z,17.45
2022-11-08T11:17:59.099Z,17.52
2022-11-08T11:20:09.148Z,17.81
2022-11-08T11:22:18.580Z,17.22
2022-11-08T11:24:26.960Z,17.33
2022-11-08T11:26:39.209Z,17.61
2022-11-08T11:29:19.878Z,17.88
2022-11-08T11:31:26.724Z,17.69
2022-11-08T11:33:34.309Z,17.76
2022-11-08T11:35:56.050Z,17.95
2022-11-08T11:38:09.742Z,18.23
2022-11-08T11:40:29.521Z,18.43
2022-11-08T11:42:48.489Z,18.67
2022-11-08T11:45:18.658Z,18.82
2022-11-08T11:47:35.156Z,18.69
2022-11-08T11:49:45.966Z,18.53
2022-11-08T11:51:59.460Z,18.34
2022-11-08T11:54:19.431Z,18.65
2022-11-08T11:56:46.950Z,18.58
2022-11-08T11:59:22.896Z,18.25
2022-11-08T12:01:54.111Z,18.14
2022-11-08T12:04:35.428Z,18.27
2022-11-08T12:07:04.750Z,18.11
2022-11-08T12:09:45.499Z,17.83
2022-11-08T12:12:12.573Z,17.75
2022-11-08T12:14:49.025Z,17.16
2022-11-08T12:17:17.808Z,17.33
2022-11-08T12:19:52.179Z,16.72
2022-11-08T12:22:27.728Z,16.17
2022-11-08T12:24:56.527Z,16.17
2022-11-08T12:27:23.262Z,16.60
2022-11-08T12:29:35.252Z,17.28
2022-11-08T12:31:59.129Z,16.31
2022-11-08T12:34:26.236Z,16.63
2022-11-08T12:36:48.656Z,16.52
2022-11-08T12:39:18.053Z,16.88
2022-11-08T12:41:52.855Z,15.83
2022-11-08T12:44:47.010Z,15.53
2022-11-08T12:47:22.339Z,15.61
2022-11-08T12:49:50.648Z,16.12
2022-11-08T12:52:25.434Z,16.32
2022-11-08T12:54:42.916Z,16.13
2022-11-08T12:57:08.410Z,15.66
2022-11-08T12:59:27.073Z,15.99
2022-11-08T13:01:44.018Z,15.62
2022-11-08T13:04:39.976Z,15.41
2022-11-08T13:06:59.190Z,15.36
2022-11-08T13:09:25.821Z,15.34
2022-11-08T13:11:46.416Z,14.87
2022-11-08T13:14:00.571Z,14.60
2022-11-08T13:16:18.401Z,14.78
2022-11-08T13:18:38.657Z,14.58
2022-11-08T13:20:49.045Z,14.10
2022-11-08T13:23:03.189Z,13.49
2022-11-08T13:25:41.970Z,13.30
2022-11-08T13:27:49.957Z,13.27
2022-11-08T13:30:28.622Z,13.53
2022-11-08T13:32:54.366Z,13.58
2022-11-08T13:35:14.337Z,13.75
2022-11-08T13:37:57.114Z,13.85
2022-11-08T13:40:55.987Z,13.71
2022-11-08T13:43:26.144Z,13.59
2022-11-08T13:45:38.171Z,13.51
2022-11-08T13:47:58.813Z,13.55
2022-11-08T13:50:51.011Z,13.49
2022-11-08T13:53:11.602Z,13.41
2022-11-08T13:55:53.556Z,13.54
2022-11-08T13:58:06.676Z,13.36
2022-11-08T14:00:47.650Z,13.17
2022-11-08T14:02:53.610Z,13.13
2022-11-08T14:05:31.937Z,13.06
2022-11-08T14:07:52.109Z,13.04
2022-11-08T14:10:14.838Z,13.24
2022-11-08T14:12:36.341Z,13.20
2022-11-08T14:14:54.513Z,13.08
2022-11-08T14:17:23.469Z,13.07
2022-11-08T14:19:38.063Z,13.14
2022-11-08T14:21:52.325Z,12.96
2022-11-08T14:23:59.838Z,12.99
2022-11-08T14:26:16.174Z,12.94
2022-11-08T14:28:31.861Z,12.96
2022-11-08T14:30:37.837Z,12.92
2022-11-08T14:32:47.463Z,12.95
2022-11-08T14:34:53.340Z,12.81
2022-11-08T14:37:00.061Z,12.85
2022-11-08T14:39:18.399Z,12.65
2022-11-08T14:41:30.902Z,12.74
2022-11-08T14:43:46.909Z,12.68
2022-11-08T14:45:54.925Z,12.57
2022-11-08T14:48:08.277Z,12.64
2022-11-08T14:50:23.798Z,12.71
2022-11-08T14:52:33.663Z,12.71
2022-11-08T14:54:44.339Z,12.67
2022-11-08T14:56:51.185Z,12.52
2022-11-08T14:58:59.156Z,12.39
2022-11-08T15:01:09.775Z,12.27
2022-11-08T15:03:22.566Z,12.20
2022-11-08T15:05:38.398Z,12.25
2022-11-08T15:07:44.532Z,12.21
2022-11-08T15:09:53.464Z,12.16
2022-11-08T15:12:05.150Z,12.11
2022-11-08T15:14:20.404Z,12.07
2022-11-08T15:16:29.952Z,12.00
2022-11-08T15:18:41.912Z,11.90
2022-11-08T15:21:00.527Z,11.89
2022-11-08T15:23:23.896Z,11.89
2022-11-08T15:25:38.387Z,11.71
2022-11-08T15:27:50.983Z,11.55
2022-11-08T15:30:04.753Z,11.44
2022-11-08T15:32:22.145Z,11.36
2022-11-08T15:34:40.730Z,11.24
2022-11-08T15:36:46.650Z,11.12
2022-11-08T15:38:56.351Z,11.07
2022-11-08T15:41:06.537Z,10.95
2022-11-08T15:43:43.221Z,10.95
2022-11-08T15:45:56.972Z,10.91
2022-11-08T15:48:24.274Z,10.93
2022-11-08T15:50:35.065Z,10.90
2022-11-08T15:52:41.681Z,10.89
2022-11-08T15:54:47.464Z,10.83
2022-11-08T15:56:56.393Z,10.67
2022-11-08T15:59:04.097Z,10.50
2022-11-08T16:01:23.771Z,10.38
2022-11-08T16:03:29.663Z,10.25
2022-11-08T16:05:38.977Z,10.25
2022-11-08T16:07:44.870Z,10.14
2022-11-08T16:09:50.670Z,10.05
2022-11-08T16:11:58.093Z,10.00
2022-11-08T16:14:04.187Z,9.97
2022-11-08T16:16:17.353Z,9.84
2022-11-08T16:18:24.955Z,9.86
2022-11-08T16:20:34.438Z,9.80
2022-11-08T16:22:43.018Z,9.80
2022-11-08T16:24:49.599Z,9.81
2022-11-08T16:26:55.538Z,9.77
2022-11-08T16:29:01.738Z,9.80
2022-11-08T16:31:14.319Z,9.73
2022-11-08T16:33:25.343Z,9.62
2022-11-08T16:35:31.870Z,9.54
2022-11-08T16:37:38.847Z,9.45
2022-11-08T16:39:47.579Z,9.41
2022-11-08T16:41:53.415Z,9.31
2022-11-08T16:44:01.141Z,9.22
2022-11-08T16:46:10.031Z,9.19
2022-11-08T16:48:22.991Z,9.19
2022-11-08T16:50:30.470Z,9.21
2022-11-08T16:52:40.007Z,9.25
2022-11-08T16:54:48.699Z,9.21
2022-11-08T16:57:13.655Z,9.29
2022-11-08T16:59:21.891Z,9.27
2022-11-08T17:01:36.273Z,9.21
2022-11-08T17:03:46.296Z,9.17
2022-11-08T17:06:00.208Z,9.21
2022-11-08T17:08:07.577Z,9.20
2022-11-08T17:10:22.778Z,9.23
2022-11-08T17:12:28.796Z,9.19
2022-11-08T17:14:34.612Z,9.15
2022-11-08T17:16:41.847Z,8.92
2022-11-08T17:18:52.738Z,8.84
2022-11-08T17:21:07.615Z,8.77
2022-11-08T17:23:25.810Z,8.82
2022-11-08T17:25:36.311Z,8.80
2022-11-08T17:27:42.396Z,8.86
2022-11-08T17:29:49.154Z,8.87
2022-11-08T17:31:55.619Z,8.88
2022-11-08T17:34:10.398Z,8.91
2022-11-08T17:36:26.358Z,8.87
2022-11-08T17:38:35.335Z,8.92
2022-11-08T17:40:44.392Z,8.89
2022-11-08T17:42:51.161Z,8.83
2022-11-08T17:44:57.984Z,8.79
2022-11-08T17:47:03.969Z,8.78
2022-11-08T17:49:12.676Z,8.72
2022-11-08T17:51:20.190Z,8.70
2022-11-08T17:53:28.106Z,8.66
2022-11-08T17:55:34.832Z,8.66
2022-11-08T17:57:43.363Z,8.63
2022-11-08T17:59:49.509Z,8.62
2022-11-08T18:01:59.268Z,8.69
2022-11-08T18:04:08.755Z,8.74
2022-11-08T18:06:17.693Z,8.74
2022-11-08T18:08:27.151Z,8.63
2022-11-08T18:10:34.776Z,8.59
2022-11-08T18:12:47.485Z,8.58
2022-11-08T18:14:54.124Z,8.49
2022-11-08T18:17:00.686Z,8.50
2022-11-08T18:19:12.784Z,8.40
2022-11-08T18:21:22.438Z,8.39
2022-11-08T18:23:28.234Z,8.43
2022-11-08T18:25:36.388Z,8.52
2022-11-08T18:27:45.622Z,8.49
2022-11-08T18:29:51.426Z,8.50
2022-11-08T18:31:57.352Z,8.48
2022-11-08T18:34:04.685Z,8.49
2022-11-08T18:36:22.049Z,8.51
2022-11-08T18:38:28.238Z,8.45
2022-11-08T18:40:36.310Z,8.47
2022-11-08T18:42:44.788Z,8.45
2022-11-08T18:44:53.318Z,8.45
2022-11-08T18:47:00.030Z,8.42
2022-11-08T18:49:23.441Z,8.47
2022-11-08T18:51:29.532Z,8.41
2022-11-08T18:53:38.425Z,8.42
2022-11-08T18:55:44.512Z,8.40
2022-11-08T18:57:50.511Z,8.37
2022-11-08T19:00:01.485Z,8.36
2022-11-08T19:02:07.646Z,8.36
2022-11-08T19:04:13.515Z,8.33
2022-11-08T19:06:20.329Z,8.32
2022-11-08T19:08:30.794Z,8.35
2022-11-08T19:10:37.069Z,8.36
2022-11-08T19:12:44.020Z,8.30
2022-11-08T19:14:50.211Z,8.34
2022-11-08T19:16:58.618Z,8.15
2022-11-08T19:19:06.542Z,8.18
2022-11-08T19:21:17.671Z,8.16
2022-11-08T19:23:26.293Z,8.02
2022-11-08T19:25:33.975Z,8.08
2022-11-08T19:27:39.982Z,8.15
2022-11-08T19:29:45.918Z,8.03
2022-11-08T19:31:52.862Z,7.98
2022-11-08T19:34:02.503Z,7.93
2022-11-08T19:36:16.784Z,7.94
2022-11-08T19:38:23.990Z,8.01
2022-11-08T19:40:32.245Z,7.90
2022-11-08T19:42:38.555Z,7.84
2022-11-08T19:44:47.342Z,7.80
2022-11-08T19:46:54.503Z,7.79
2022-11-08T19:49:07.355Z,7.73
2022-11-08T19:51:19.812Z,7.67
2022-11-08T19:53:27.300Z,7.70
2022-11-08T19:55:37.691Z,7.76
2022-11-08T19:57:45.804Z,7.68
2022-11-08T19:59:52.982Z,7.64
2022-11-08T20:02:00.394Z,7.54
2022-11-08T20:04:14.880Z,7.54
2022-11-08T20:06:24.394Z,7.54
2022-11-08T20:08:31.831Z,7.59
2022-11-08T20:10:42.628Z,7.56
2022-11-08T20:12:49.862Z,7.51
2022-11-08T20:14:56.930Z,7.48
2022-11-08T20:17:05.530Z,7.46
2022-11-08T20:19:18.060Z,7.44
2022-11-08T20:21:25.277Z,7.46
2022-11-08T20:23:32.579Z,7.43
2022-11-08T20:25:40.253Z,7.36
2022-11-08T20:27:46.295Z,7.34
2022-11-08T20:29:53.118Z,7.41
2022-11-08T20:32:00.405Z,7.30
2022-11-08T20:34:15.848Z,7.36
2022-11-08T20:36:26.048Z,7.31
2022-11-08T20:38:32.026Z,7.28
2022-11-08T20:40:40.857Z,7.27
2022-11-08T20:49:00.001Z,8.95
2022-11-08T20:51:20.046Z,8.98
2022-11-08T20:53:28.437Z,8.98
2022-11-08T20:55:35.992Z,8.91
2022-11-08T20:57:42.805Z,8.90
2022-11-08T20:59:49.107Z,8.89
2022-11-08T21:04:16.398Z,8.81
2022-11-08T21:06:26.554Z,8.68
2022-11-08T21:11:05.715Z,8.76
2022-11-08T21:13:11.673Z,8.79
2022-11-08T21:15:26.902Z,8.75
2022-11-08T21:17:42.355Z,8.78
2022-11-08T21:19:52.016Z,8.79
2022-11-08T21:22:18.004Z,8.72
2022-11-08T21:24:24.996Z,8.75
2022-11-08T21:26:36.344Z,8.77
2022-11-08T21:28:44.201Z,8.82
2022-11-08T21:30:50.998Z,8.76
2022-11-08T21:32:59.287Z,8.74
2022-11-08T21:35:12.668Z,8.79
2022-11-08T21:37:19.448Z,8.63
2022-11-08T21:39:26.993Z,8.64
2022-11-08T21:41:42.928Z,8.52
2022-11-08T21:43:49.771Z,8.54
2022-11-08T21:45:55.658Z,8.53
2022-11-08T21:48:01.704Z,8.52
2022-11-08T21:50:12.471Z,8.51
2022-11-08T21:52:18.352Z,8.55
2022-11-08T21:54:27.153Z,8.61
2022-11-08T21:56:39.482Z,8.57
2022-11-08T21:58:45.465Z,8.58
2022-11-08T22:00:53.819Z,8.51
2022-11-08T22:03:00.927Z,8.54
2022-11-08T22:05:07.970Z,8.52
2022-11-08T22:07:29.029Z,8.38
2022-11-08T22:09:36.399Z,8.31
2022-11-08T22:11:43.281Z,8.21
2022-11-08T22:13:55.997Z,8.15
2022-11-08T22:16:08.009Z,8.16
2022-11-08T22:18:17.657Z,8.17
2022-11-08T22:20:32.850Z,8.10
2022-11-08T22:22:44.777Z,8.08
2022-11-08T22:24:50.901Z,8.05
2022-11-08T22:26:57.257Z,7.95
2022-11-08T22:29:10.990Z,7.99
2022-11-08T22:31:20.182Z,8.09
2022-11-08T22:33:27.393Z,8.04
2022-11-08T22:35:34.476Z,8.00
2022-11-08T22:37:43.293Z,7.94
2022-11-08T22:39:49.617Z,7.99
2022-11-08T22:41:58.023Z,8.00
2022-11-08T22:44:10.540Z,8.00
2022-11-08T22:46:18.944Z,7.93
2022-11-08T22:48:26.416Z,7.99
2022-11-08T22:50:33.328Z,8.11
2022-11-08T22:52:39.622Z,8.22
2022-11-08T22:54:49.409Z,8.24
2022-11-08T22:56:55.723Z,8.31
2022-11-08T22:59:02.077Z,8.31
2022-11-08T23:01:10.562Z,8.34
2022-11-08T23:03:16.855Z,8.23
2022-11-08T23:05:23.439Z,8.19
2022-11-08T23:07:31.978Z,8.19
2022-11-08T23:09:38.321Z,8.14
2022-11-08T23:11:59.521Z,8.07
2022-11-08T23:14:19.955Z,8.07
2022-11-08T23:16:36.214Z,8.13
2022-11-08T23:19:02.501Z,8.10
2022-11-08T23:21:22.020Z,8.15
2022-11-08T23:23:55.105Z,8.15
2022-11-08T23:26:01.729Z,8.07
2022-11-08T23:28:56.360Z,8.19
2022-11-08T23:31:54.300Z,8.25
2022-11-08T23:34:27.433Z,8.27
2022-11-08T23:36:43.217Z,8.24
2022-11-08T23:38:50.135Z,8.23
2022-11-08T23:41:09.832Z,8.19
2022-11-08T23:43:45.280Z,8.19
2022-11-08T23:46:12.608Z,8.07
2022-11-08T23:48:29.999Z,8.05
2022-11-08T23:50:41.367Z,7.98
2022-11-08T23:52:47.134Z,7.90
2022-11-08T23:54:54.151Z,7.92
2022-11-08T23:57:00.101Z,7.82
2022-11-08T23:59:11.505Z,7.79
